Terminal Aerodrome Forecast
Issued by NWS

Home | Current Version | Previous Version | Text Only | Print | Product List | Glossary On
Versions: 1 2 3 4 5 6 7 8 9 10 11 12 13 14 15 16 17 18 19 20 21 22 23 24 25 26 27 28
150
FTUS43 KABR 241140 AAA
TAFMBG
TAF AMD
KMBG 241140Z 2412/2512 36013KT P6SM -RA OVC008
      TEMPO 2412/2416 5SM RA BR OVC010
     FM241900 34013KT P6SM -SHRA OVC010
     FM242100 35013KT P6SM OVC009=

USA.gov is the U.S. government's official web portal to all federal, state and local government web resources and services.